Terminal Aerodrome Forecast
Issued by NWS

Home | Current Version | Previous Version | Graphics & Text | Print | Product List | Glossary On
Versions: 1 2 3 4 5 6 7 8 9 10 11 12 13 14 15 16 17 18 19 20
755
FTUS43 KABR 280441 AAB
TAFPIR
TAF AMD
KPIR 280441Z 2805/2824 04007KT P6SM -SHRA OVC025
     FM280700 03009KT P6SM -SHSN OVC025
     FM280900 02008KT P6SM OVC025
     FM281400 02008KT P6SM BKN008
     FM281800 02008KT P6SM OVC010
     FM282200 01008KT P6SM BKN020=

USA.gov is the U.S. government's official web portal to all federal, state and local government web resources and services.